Okayama Airport
RJOB : now visible

Airfield :











YOU CAN JOIN US ON...

 
LOGIN :

Register | Disclaimer

   EN    FR    IT 

 









Legend :    VFR   Marginal VFR   IFR   Intensive IFR   Very Intensive IFR
Visi :
Ceiling :
>= 8 km
>= 3000ft
5 to 8 km
1000 to 3000 ft
1500m to 5 km
500 to 1000 ft
800 to 1500m
200 to 500 ft
< 800m
< 200 ft
Symbols :   Thunderstorms  Fog  Heavy snow  Heavy precipitations  Wind > 20 kt






- Airport Elevation : 806 ft
- IATA code : OKJ


RJOB - Okayama

CURRENT METAR :
  • 162300Z VRB02KT 9999 FEW020 SCT050 BKN/// 11/09 Q1023

EXPIRED METARs :
  • 162200Z VRB01KT 9999 PRFG FEW000 SCT/// 08/08 Q1022
  • 162115Z 01004KT 320V030 9999 PRFG FEW000 BKN050 10/08 Q1022 RMK 1ST000 5SC050 A3019 FG NE-E

TAF TAF RJOB
Valid from the 17 at 00:00 until the 18 at 06:00 UTC


162308Z 1700/1806 12005KT 9999 FEW020
BECMG 1800/1803 21008KT



MET'MAP, your aeronautical weather chart ! - Copyright ORBIFLY December 2007 - Disclaimer

ORBIFLY MET'MAP TEAM :

Programming & Development : Alexandra Zaïnal
Concept & Development : Baudouin d'Aumeries
Co-Development & Prog : Marc-Olivier Méhu
Technical & hardware support : Manuel Goepfert

Contact : metmap@orbifly.com




SOURCES & CREDITS :

   NOAA       Earth
Advisory